SWA3970 KPVD-KMCO
Flight info
| Callsign | SWA3970 |
|---|---|
| Flight time | N/A |
| Altitude | 40000 |
| Route | HTO037024 RIFLE HEADI Q97 SAWED MOXXY Q85 LPERD GTOUT1 KMCO |
| Aircraft | B737/M-SADE2E3GIJ4RWZ/LB1D1 |
Departure
| Time | N/A |
|---|---|
| Airport | Rhode Island T. F. Green International Airport (KPVD) |
Arrival
| Time | 2026-04-24 21:00 |
|---|---|
| Airport | Orlando International Airport (KMCO) |
| Time | Latitude | Longitude | Altitude | Speed | Heading |
|---|---|---|---|---|---|
| 2026-04-24 18:54 | 40.37311 | -73.08602 | 39899 ft | 438 kts | 238° |
| 2026-04-24 18:55 | 40.31480 | -73.17781 | 39883 ft | 432 kts | 238° |
| 2026-04-24 18:56 | 40.27668 | -73.23764 | 39894 ft | 425 kts | 238° |
| 2026-04-24 18:56 | 40.23895 | -73.29684 | 39908 ft | 421 kts | 238° |
| 2026-04-24 18:57 | 40.20127 | -73.35596 | 39911 ft | 427 kts | 238° |
| 2026-04-24 18:57 | 40.16305 | -73.41579 | 39921 ft | 434 kts | 238° |
| 2026-04-24 18:58 | 40.12423 | -73.47629 | 39911 ft | 434 kts | 238° |
| 2026-04-24 18:58 | 40.08540 | -73.53668 | 39903 ft | 433 kts | 238° |
| 2026-04-24 18:59 | 40.04671 | -73.59680 | 39902 ft | 430 kts | 238° |
| 2026-04-24 18:59 | 40.00824 | -73.65649 | 39883 ft | 428 kts | 238° |
| 2026-04-24 19:00 | 39.96767 | -73.71269 | 39888 ft | 437 kts | 227° |
| 2026-04-24 19:00 | 39.91425 | -73.75341 | 39924 ft | 452 kts | 211° |
| 2026-04-24 19:01 | 39.85568 | -73.78396 | 39916 ft | 453 kts | 210° |
| 2026-04-24 19:01 | 39.79702 | -73.81405 | 39915 ft | 452 kts | 210° |
| 2026-04-24 19:02 | 39.74849 | -73.83947 | 39899 ft | 452 kts | 211° |
| 2026-04-24 19:02 | 39.68069 | -73.87537 | 39913 ft | 453 kts | 211° |
| 2026-04-24 19:03 | 39.62217 | -73.90635 | 39915 ft | 454 kts | 211° |
| 2026-04-24 19:03 | 39.56359 | -73.93727 | 39914 ft | 456 kts | 211° |
| 2026-04-24 19:04 | 39.50472 | -73.96828 | 39914 ft | 457 kts | 210° |
| 2026-04-24 19:04 | 39.44571 | -73.99930 | 39911 ft | 458 kts | 210° |
| 2026-04-24 19:05 | 39.39106 | -74.03818 | 39901 ft | 438 kts | 228° |
| 2026-04-24 19:05 | 39.34516 | -74.08871 | 39904 ft | 435 kts | 230° |
| 2026-04-24 19:06 | 39.29928 | -74.13988 | 39913 ft | 436 kts | 229° |
| 2026-04-24 19:06 | 39.25312 | -74.19065 | 39904 ft | 436 kts | 229° |
| 2026-04-24 19:07 | 39.20670 | -74.24125 | 39901 ft | 436 kts | 229° |
| 2026-04-24 19:07 | 39.16812 | -74.28318 | 39874 ft | 436 kts | 229° |
| 2026-04-24 19:08 | 39.11396 | -74.34196 | 39893 ft | 435 kts | 229° |
| 2026-04-24 19:08 | 39.06766 | -74.39213 | 39893 ft | 435 kts | 229° |
| 2026-04-24 19:09 | 39.02133 | -74.44226 | 39898 ft | 435 kts | 229° |
| 2026-04-24 19:09 | 38.97531 | -74.49199 | 39887 ft | 435 kts | 229° |
| 2026-04-24 19:10 | 38.92899 | -74.54218 | 39895 ft | 434 kts | 230° |
| 2026-04-24 19:10 | 38.88445 | -74.59431 | 39904 ft | 433 kts | 231° |
| 2026-04-24 19:11 | 38.84019 | -74.64682 | 39897 ft | 434 kts | 231° |
| 2026-04-24 19:11 | 38.79556 | -74.69909 | 39900 ft | 435 kts | 231° |
| 2026-04-24 19:12 | 38.75067 | -74.75131 | 39902 ft | 435 kts | 230° |
| 2026-04-24 19:12 | 38.70392 | -74.80123 | 39903 ft | 439 kts | 227° |
| 2026-04-24 19:13 | 38.66421 | -74.84189 | 39894 ft | 439 kts | 227° |
| 2026-04-24 19:13 | 38.60891 | -74.89900 | 39897 ft | 439 kts | 227° |
| 2026-04-24 19:14 | 38.56153 | -74.94826 | 39894 ft | 439 kts | 227° |
| 2026-04-24 19:14 | 38.52218 | -74.98920 | 39899 ft | 438 kts | 228° |
| 2026-04-24 19:15 | 38.47634 | -75.04031 | 39909 ft | 436 kts | 230° |
| 2026-04-24 19:15 | 38.42892 | -75.08924 | 39898 ft | 440 kts | 224° |
| 2026-04-24 19:16 | 38.35460 | -75.15836 | 39905 ft | 441 kts | 224° |
| 2026-04-24 19:16 | 38.30530 | -75.20466 | 39909 ft | 440 kts | 224° |
| 2026-04-24 19:17 | 38.25607 | -75.25128 | 39906 ft | 441 kts | 224° |
| 2026-04-24 19:17 | 38.20690 | -75.29783 | 39905 ft | 441 kts | 224° |
| 2026-04-24 19:18 | 38.15768 | -75.34434 | 39878 ft | 441 kts | 224° |
| 2026-04-24 19:18 | 38.10873 | -75.39052 | 39883 ft | 441 kts | 224° |
| 2026-04-24 19:19 | 38.05942 | -75.43694 | 39861 ft | 441 kts | 224° |
| 2026-04-24 19:19 | 38.00924 | -75.48200 | 39883 ft | 443 kts | 221° |
| 2026-04-24 19:20 | 37.95806 | -75.52571 | 39906 ft | 443 kts | 220° |
| 2026-04-24 19:20 | 37.90707 | -75.56964 | 39903 ft | 443 kts | 221° |
| 2026-04-24 19:21 | 37.85615 | -75.61373 | 39908 ft | 444 kts | 221° |
| 2026-04-24 19:21 | 37.80389 | -75.65610 | 39887 ft | 448 kts | 217° |
| 2026-04-24 19:22 | 37.75049 | -75.69571 | 39894 ft | 448 kts | 217° |
| 2026-04-24 19:22 | 37.69682 | -75.73562 | 39892 ft | 448 kts | 217° |
| 2026-04-24 19:23 | 37.64335 | -75.77580 | 39902 ft | 447 kts | 217° |
| 2026-04-24 19:23 | 37.58994 | -75.81599 | 39893 ft | 445 kts | 217° |
| 2026-04-24 19:24 | 37.53712 | -75.85575 | 39892 ft | 443 kts | 218° |
| 2026-04-24 19:24 | 37.48824 | -75.90176 | 39896 ft | 436 kts | 225° |
| 2026-04-24 19:25 | 37.44139 | -75.95017 | 39878 ft | 435 kts | 225° |
| 2026-04-24 19:25 | 37.39442 | -75.99841 | 39884 ft | 435 kts | 225° |
| 2026-04-24 19:26 | 37.34718 | -76.04624 | 39877 ft | 436 kts | 225° |
| 2026-04-24 19:26 | 37.29967 | -76.09400 | 39861 ft | 437 kts | 224° |
| 2026-04-24 19:27 | 37.25216 | -76.14158 | 39870 ft | 437 kts | 224° |
| 2026-04-24 19:27 | 37.20493 | -76.18882 | 39863 ft | 437 kts | 224° |
| 2026-04-24 19:28 | 37.15734 | -76.23637 | 39871 ft | 438 kts | 224° |
| 2026-04-24 19:28 | 37.10969 | -76.28391 | 39859 ft | 438 kts | 224° |
| 2026-04-24 19:29 | 37.03810 | -76.35515 | 39865 ft | 438 kts | 224° |
| 2026-04-24 19:30 | 36.99037 | -76.40257 | 39856 ft | 438 kts | 224° |
| 2026-04-24 19:30 | 36.94254 | -76.45000 | 39899 ft | 439 kts | 224° |
| 2026-04-24 19:31 | 36.89467 | -76.49739 | 39875 ft | 438 kts | 223° |
| 2026-04-24 19:31 | 36.84720 | -76.54430 | 39874 ft | 437 kts | 223° |
| 2026-04-24 19:32 | 36.79950 | -76.59136 | 39874 ft | 436 kts | 223° |
| 2026-04-24 19:32 | 36.75194 | -76.63822 | 39869 ft | 435 kts | 223° |
| 2026-04-24 19:33 | 36.70441 | -76.68497 | 39865 ft | 434 kts | 223° |
| 2026-04-24 19:33 | 36.65700 | -76.73152 | 39867 ft | 433 kts | 223° |
| 2026-04-24 19:34 | 36.60969 | -76.77791 | 39868 ft | 433 kts | 223° |
| 2026-04-24 19:34 | 36.56240 | -76.82421 | 39857 ft | 432 kts | 223° |
| 2026-04-24 19:35 | 36.51510 | -76.87043 | 39848 ft | 432 kts | 223° |
| 2026-04-24 19:35 | 36.46811 | -76.91628 | 39854 ft | 432 kts | 223° |
| 2026-04-24 19:36 | 36.42081 | -76.96237 | 39859 ft | 432 kts | 222° |
| 2026-04-24 19:36 | 36.37346 | -77.00842 | 39863 ft | 433 kts | 222° |
| 2026-04-24 19:37 | 36.32597 | -77.05455 | 39856 ft | 433 kts | 222° |
| 2026-04-24 19:37 | 36.27847 | -77.10059 | 39854 ft | 433 kts | 222° |
| 2026-04-24 19:38 | 36.23098 | -77.14657 | 39859 ft | 433 kts | 222° |
| 2026-04-24 19:38 | 36.18336 | -77.19259 | 39859 ft | 433 kts | 222° |
| 2026-04-24 19:39 | 36.13621 | -77.23810 | 39857 ft | 433 kts | 222° |
| 2026-04-24 19:39 | 36.08868 | -77.28391 | 39862 ft | 433 kts | 222° |
| 2026-04-24 19:40 | 36.04118 | -77.32961 | 39862 ft | 431 kts | 222° |
| 2026-04-24 19:40 | 35.99402 | -77.37523 | 39862 ft | 430 kts | 222° |
| 2026-04-24 19:41 | 35.94703 | -77.42078 | 39865 ft | 428 kts | 222° |
| 2026-04-24 19:41 | 35.90023 | -77.46608 | 39867 ft | 427 kts | 222° |
| 2026-04-24 19:42 | 35.85352 | -77.51120 | 39878 ft | 426 kts | 222° |
| 2026-04-24 19:42 | 35.80696 | -77.55608 | 39876 ft | 424 kts | 222° |
| 2026-04-24 19:43 | 35.76074 | -77.60058 | 39869 ft | 423 kts | 222° |
| 2026-04-24 19:43 | 35.71430 | -77.64522 | 39881 ft | 423 kts | 222° |
| 2026-04-24 19:44 | 35.66786 | -77.68980 | 39885 ft | 423 kts | 222° |
| 2026-04-24 19:44 | 35.62135 | -77.73437 | 39881 ft | 424 kts | 221° |
| 2026-04-24 19:45 | 35.57487 | -77.77885 | 39890 ft | 424 kts | 221° |
| 2026-04-24 19:45 | 35.52854 | -77.82311 | 39888 ft | 424 kts | 221° |
| 2026-04-24 19:46 | 35.48189 | -77.86761 | 39892 ft | 425 kts | 221° |
| 2026-04-24 19:46 | 35.43515 | -77.91213 | 39888 ft | 425 kts | 221° |
| 2026-04-24 19:47 | 35.38835 | -77.95664 | 39911 ft | 426 kts | 221° |
| 2026-04-24 19:47 | 35.34147 | -78.00116 | 39901 ft | 426 kts | 221° |
| 2026-04-24 19:48 | 35.29457 | -78.04563 | 39908 ft | 426 kts | 221° |
| 2026-04-24 19:48 | 35.22447 | -78.11198 | 39893 ft | 427 kts | 221° |
| 2026-04-24 19:49 | 35.13046 | -78.20073 | 39897 ft | 426 kts | 221° |
| 2026-04-24 19:50 | 35.03662 | -78.28907 | 39893 ft | 425 kts | 221° |
| 2026-04-24 19:51 | 34.96629 | -78.35506 | 39899 ft | 425 kts | 221° |
| 2026-04-24 19:52 | 34.89595 | -78.42078 | 39902 ft | 424 kts | 221° |
| 2026-04-24 19:52 | 34.84913 | -78.46446 | 39885 ft | 424 kts | 221° |
| 2026-04-24 19:53 | 34.80255 | -78.50788 | 39892 ft | 424 kts | 221° |
| 2026-04-24 19:54 | 34.73230 | -78.57323 | 39913 ft | 424 kts | 221° |
| 2026-04-24 19:54 | 34.68544 | -78.61674 | 39911 ft | 423 kts | 221° |
| 2026-04-24 19:55 | 34.65411 | -78.64580 | 39918 ft | 423 kts | 221° |
| 2026-04-24 19:55 | 34.59178 | -78.70354 | 39911 ft | 424 kts | 220° |
| 2026-04-24 19:56 | 34.54486 | -78.74694 | 39915 ft | 424 kts | 220° |
| 2026-04-24 19:56 | 34.49791 | -78.79025 | 39906 ft | 424 kts | 220° |
| 2026-04-24 19:57 | 34.45061 | -78.83328 | 39893 ft | 425 kts | 220° |
| 2026-04-24 19:57 | 34.40288 | -78.87500 | 39906 ft | 426 kts | 218° |
| 2026-04-24 19:58 | 34.35410 | -78.91572 | 39908 ft | 426 kts | 218° |
| 2026-04-24 19:58 | 34.30538 | -78.95667 | 39911 ft | 426 kts | 218° |
| 2026-04-24 19:59 | 34.25674 | -78.99771 | 39915 ft | 426 kts | 218° |
| 2026-04-24 19:59 | 34.20797 | -79.03865 | 39911 ft | 426 kts | 218° |
| 2026-04-24 20:00 | 34.15914 | -79.07953 | 39919 ft | 426 kts | 218° |
| 2026-04-24 20:00 | 34.11062 | -79.12013 | 39926 ft | 426 kts | 218° |
| 2026-04-24 20:01 | 34.06180 | -79.16094 | 39925 ft | 426 kts | 218° |
| 2026-04-24 20:01 | 34.01298 | -79.20169 | 39930 ft | 426 kts | 218° |
| 2026-04-24 20:02 | 33.97244 | -79.23553 | 39922 ft | 426 kts | 218° |
| 2026-04-24 20:02 | 33.91545 | -79.28308 | 39927 ft | 426 kts | 218° |
| 2026-04-24 20:03 | 33.86705 | -79.32341 | 39925 ft | 426 kts | 218° |
| 2026-04-24 20:03 | 33.81832 | -79.36395 | 39925 ft | 425 kts | 217° |
| 2026-04-24 20:04 | 33.76960 | -79.40442 | 39926 ft | 425 kts | 217° |
| 2026-04-24 20:04 | 33.72915 | -79.43799 | 39912 ft | 425 kts | 217° |
| 2026-04-24 20:05 | 33.68044 | -79.47834 | 39924 ft | 425 kts | 217° |
| 2026-04-24 20:05 | 33.63175 | -79.51864 | 39929 ft | 425 kts | 217° |
| 2026-04-24 20:06 | 33.58298 | -79.55894 | 39928 ft | 425 kts | 217° |
| 2026-04-24 20:06 | 33.53452 | -79.59893 | 39933 ft | 425 kts | 217° |
| 2026-04-24 20:07 | 33.49397 | -79.63236 | 39922 ft | 425 kts | 217° |
| 2026-04-24 20:07 | 33.43702 | -79.67924 | 39939 ft | 425 kts | 217° |
| 2026-04-24 20:08 | 33.38823 | -79.71935 | 39939 ft | 425 kts | 217° |
| 2026-04-24 20:08 | 33.33942 | -79.75939 | 39938 ft | 426 kts | 217° |
| 2026-04-24 20:09 | 33.29053 | -79.79942 | 39944 ft | 426 kts | 217° |
| 2026-04-24 20:09 | 33.24158 | -79.83944 | 39935 ft | 426 kts | 217° |
| 2026-04-24 20:10 | 33.19300 | -79.87912 | 39943 ft | 426 kts | 217° |
| 2026-04-24 20:10 | 33.14411 | -79.91900 | 39943 ft | 426 kts | 217° |
| 2026-04-24 20:11 | 33.09515 | -79.95890 | 39944 ft | 426 kts | 217° |
| 2026-04-24 20:11 | 33.04618 | -79.99874 | 39957 ft | 426 kts | 217° |
| 2026-04-24 20:12 | 32.99719 | -80.03855 | 39961 ft | 426 kts | 217° |
| 2026-04-24 20:12 | 32.94818 | -80.07831 | 39958 ft | 426 kts | 217° |
| 2026-04-24 20:13 | 32.89918 | -80.11802 | 39964 ft | 426 kts | 217° |
| 2026-04-24 20:13 | 32.85048 | -80.15743 | 39962 ft | 426 kts | 217° |
| 2026-04-24 20:14 | 32.80145 | -80.19706 | 39968 ft | 427 kts | 217° |
| 2026-04-24 20:14 | 32.75220 | -80.23680 | 39957 ft | 427 kts | 216° |
| 2026-04-24 20:15 | 32.70314 | -80.27634 | 39962 ft | 426 kts | 216° |
| 2026-04-24 20:15 | 32.65412 | -80.31581 | 39961 ft | 425 kts | 216° |
| 2026-04-24 20:16 | 32.60506 | -80.35526 | 39958 ft | 425 kts | 216° |
| 2026-04-24 20:16 | 32.55541 | -80.39338 | 39963 ft | 426 kts | 213° |
| 2026-04-24 20:17 | 32.50426 | -80.42786 | 39953 ft | 426 kts | 211° |
| 2026-04-24 20:17 | 32.42660 | -80.47937 | 39969 ft | 426 kts | 212° |
| 2026-04-24 20:18 | 32.37499 | -80.51397 | 39971 ft | 426 kts | 212° |
| 2026-04-24 20:18 | 32.32345 | -80.54864 | 39970 ft | 426 kts | 212° |
| 2026-04-24 20:19 | 32.27184 | -80.58334 | 39970 ft | 427 kts | 212° |
| 2026-04-24 20:19 | 32.22044 | -80.61784 | 39964 ft | 427 kts | 212° |
| 2026-04-24 20:20 | 32.16872 | -80.65251 | 39982 ft | 428 kts | 212° |
| 2026-04-24 20:20 | 32.11694 | -80.68717 | 39980 ft | 428 kts | 212° |
| 2026-04-24 20:21 | 32.06514 | -80.72179 | 39976 ft | 428 kts | 212° |
| 2026-04-24 20:21 | 32.01328 | -80.75641 | 39970 ft | 428 kts | 212° |
| 2026-04-24 20:22 | 31.96131 | -80.79106 | 39960 ft | 428 kts | 211° |
| 2026-04-24 20:22 | 31.90975 | -80.82539 | 39946 ft | 428 kts | 211° |
| 2026-04-24 20:23 | 31.85793 | -80.85985 | 39946 ft | 428 kts | 211° |
| 2026-04-24 20:23 | 31.80608 | -80.89429 | 39951 ft | 428 kts | 211° |
| 2026-04-24 20:24 | 31.75427 | -80.92866 | 39941 ft | 428 kts | 211° |
| 2026-04-24 20:24 | 31.70244 | -80.96300 | 39951 ft | 428 kts | 211° |
| 2026-04-24 20:25 | 31.65053 | -80.99735 | 39956 ft | 428 kts | 211° |
| 2026-04-24 20:25 | 31.59861 | -81.03166 | 39960 ft | 428 kts | 211° |
| 2026-04-24 20:26 | 31.54620 | -81.06501 | 39959 ft | 429 kts | 210° |
| 2026-04-24 20:26 | 31.49345 | -81.09694 | 39965 ft | 429 kts | 210° |
| 2026-04-24 20:27 | 31.44043 | -81.12922 | 39964 ft | 429 kts | 210° |
| 2026-04-24 20:27 | 31.38746 | -81.16164 | 39970 ft | 430 kts | 210° |
| 2026-04-24 20:28 | 31.33416 | -81.19359 | 39970 ft | 430 kts | 209° |
| 2026-04-24 20:28 | 31.28102 | -81.22494 | 39961 ft | 430 kts | 209° |
| 2026-04-24 20:29 | 31.22765 | -81.25655 | 39955 ft | 430 kts | 209° |
| 2026-04-24 20:29 | 31.17124 | -81.28012 | 39968 ft | 434 kts | 192° |
| 2026-04-24 20:30 | 31.11063 | -81.28419 | 39962 ft | 438 kts | 182° |
| 2026-04-24 20:30 | 31.04955 | -81.28318 | 39966 ft | 439 kts | 182° |
| 2026-04-24 20:31 | 30.98898 | -81.28265 | 40010 ft | 429 kts | 182° |
| 2026-04-24 20:31 | 30.95939 | -81.28257 | 39968 ft | 410 kts | 181° |
| 2026-04-24 20:31 | 30.93173 | -81.28177 | 39894 ft | 397 kts | 180° |
| 2026-04-24 20:32 | 30.90414 | -81.28101 | 39590 ft | 399 kts | 182° |
| 2026-04-24 20:32 | 30.87602 | -81.28117 | 39201 ft | 413 kts | 183° |
| 2026-04-24 20:32 | 30.84650 | -81.28146 | 38697 ft | 434 kts | 182° |
| 2026-04-24 20:32 | 30.81597 | -81.28164 | 37928 ft | 441 kts | 182° |
| 2026-04-24 20:33 | 30.78527 | -81.28165 | 37294 ft | 439 kts | 182° |
| 2026-04-24 20:33 | 30.75479 | -81.28157 | 36635 ft | 438 kts | 182° |
| 2026-04-24 20:33 | 30.72430 | -81.28144 | 35988 ft | 437 kts | 182° |
| 2026-04-24 20:33 | 30.69400 | -81.28132 | 35481 ft | 433 kts | 182° |
| 2026-04-24 20:34 | 30.66389 | -81.28120 | 34983 ft | 430 kts | 182° |
| 2026-04-24 20:34 | 30.63407 | -81.28109 | 34489 ft | 427 kts | 182° |
| 2026-04-24 20:34 | 30.60449 | -81.28099 | 34010 ft | 424 kts | 182° |
| 2026-04-24 20:34 | 30.57505 | -81.27992 | 33541 ft | 420 kts | 179° |
| 2026-04-24 20:35 | 30.54644 | -81.27787 | 33107 ft | 417 kts | 178° |
| 2026-04-24 20:35 | 30.51755 | -81.27543 | 32685 ft | 414 kts | 178° |
| 2026-04-24 20:35 | 30.48873 | -81.27295 | 32277 ft | 416 kts | 178° |
| 2026-04-24 20:35 | 30.45974 | -81.27053 | 31880 ft | 419 kts | 178° |
| 2026-04-24 20:36 | 30.43060 | -81.26819 | 31463 ft | 418 kts | 179° |
| 2026-04-24 20:36 | 30.40160 | -81.26592 | 31046 ft | 416 kts | 179° |
| 2026-04-24 20:36 | 30.37281 | -81.26372 | 30642 ft | 414 kts | 179° |
| 2026-04-24 20:36 | 30.34407 | -81.26155 | 30239 ft | 413 kts | 179° |
| 2026-04-24 20:37 | 30.31544 | -81.25941 | 29798 ft | 412 kts | 179° |
| 2026-04-24 20:37 | 30.28688 | -81.25727 | 29343 ft | 410 kts | 179° |
| 2026-04-24 20:37 | 30.25846 | -81.25515 | 28917 ft | 408 kts | 179° |
| 2026-04-24 20:37 | 30.23027 | -81.25305 | 28522 ft | 405 kts | 179° |
| 2026-04-24 20:38 | 30.20220 | -81.25095 | 28113 ft | 403 kts | 179° |
| 2026-04-24 20:38 | 30.17429 | -81.24887 | 27709 ft | 400 kts | 179° |
| 2026-04-24 20:38 | 30.14646 | -81.24680 | 27325 ft | 399 kts | 179° |
| 2026-04-24 20:38 | 30.11922 | -81.24477 | 26943 ft | 397 kts | 179° |
| 2026-04-24 20:39 | 30.09173 | -81.24272 | 26549 ft | 396 kts | 179° |
| 2026-04-24 20:39 | 30.06429 | -81.24068 | 26169 ft | 394 kts | 179° |
| 2026-04-24 20:39 | 30.03698 | -81.23865 | 25786 ft | 393 kts | 179° |
| 2026-04-24 20:39 | 30.00972 | -81.23662 | 25408 ft | 391 kts | 179° |
| 2026-04-24 20:40 | 29.98264 | -81.23461 | 25023 ft | 388 kts | 179° |
| 2026-04-24 20:40 | 29.95586 | -81.23261 | 24639 ft | 383 kts | 179° |
| 2026-04-24 20:40 | 29.92947 | -81.23065 | 24263 ft | 378 kts | 179° |
| 2026-04-24 20:40 | 29.90332 | -81.22871 | 23887 ft | 374 kts | 179° |
| 2026-04-24 20:41 | 29.87740 | -81.22679 | 23503 ft | 372 kts | 179° |
| 2026-04-24 20:41 | 29.85167 | -81.22488 | 23082 ft | 369 kts | 179° |
| 2026-04-24 20:41 | 29.82618 | -81.22300 | 22694 ft | 366 kts | 179° |
| 2026-04-24 20:41 | 29.80086 | -81.22112 | 22316 ft | 362 kts | 179° |
| 2026-04-24 20:42 | 29.77579 | -81.21927 | 21960 ft | 359 kts | 179° |
| 2026-04-24 20:42 | 29.75091 | -81.21743 | 21609 ft | 357 kts | 179° |
| 2026-04-24 20:42 | 29.72612 | -81.21560 | 21265 ft | 357 kts | 179° |
| 2026-04-24 20:42 | 29.70154 | -81.21377 | 20919 ft | 358 kts | 179° |
| 2026-04-24 20:43 | 29.67662 | -81.21172 | 20564 ft | 359 kts | 178° |
| 2026-04-24 20:43 | 29.65168 | -81.20956 | 20210 ft | 360 kts | 178° |
| 2026-04-24 20:43 | 29.62673 | -81.20738 | 19859 ft | 360 kts | 178° |
| 2026-04-24 20:43 | 29.60179 | -81.20521 | 19510 ft | 359 kts | 178° |
| 2026-04-24 20:44 | 29.57698 | -81.20305 | 19155 ft | 356 kts | 178° |
| 2026-04-24 20:44 | 29.55244 | -81.20093 | 18803 ft | 350 kts | 178° |
| 2026-04-24 20:44 | 29.52829 | -81.19884 | 18458 ft | 346 kts | 178° |
| 2026-04-24 20:44 | 29.50438 | -81.19679 | 18100 ft | 345 kts | 178° |
| 2026-04-24 20:45 | 29.48049 | -81.19476 | 17725 ft | 344 kts | 178° |
| 2026-04-24 20:45 | 29.45671 | -81.19272 | 17371 ft | 342 kts | 178° |
| 2026-04-24 20:45 | 29.43304 | -81.19070 | 17018 ft | 340 kts | 178° |
| 2026-04-24 20:45 | 29.40951 | -81.18870 | 16687 ft | 338 kts | 178° |
| 2026-04-24 20:46 | 29.38615 | -81.18670 | 16349 ft | 336 kts | 178° |
| 2026-04-24 20:46 | 29.36293 | -81.18472 | 16006 ft | 334 kts | 178° |
| 2026-04-24 20:46 | 29.33985 | -81.18275 | 15682 ft | 332 kts | 178° |
| 2026-04-24 20:46 | 29.31687 | -81.18079 | 15359 ft | 330 kts | 178° |
| 2026-04-24 20:47 | 29.29402 | -81.17884 | 15038 ft | 328 kts | 178° |
| 2026-04-24 20:47 | 29.27159 | -81.17688 | 14719 ft | 326 kts | 178° |
| 2026-04-24 20:47 | 29.24873 | -81.17485 | 14399 ft | 325 kts | 178° |
| 2026-04-24 20:47 | 29.22652 | -81.17289 | 14079 ft | 323 kts | 178° |
| 2026-04-24 20:48 | 29.20417 | -81.17092 | 13765 ft | 321 kts | 178° |
| 2026-04-24 20:48 | 29.18192 | -81.16773 | 13403 ft | 323 kts | 167° |
| 2026-04-24 20:48 | 29.16066 | -81.15925 | 13105 ft | 325 kts | 160° |
| 2026-04-24 20:48 | 29.13962 | -81.14968 | 12700 ft | 324 kts | 160° |
| 2026-04-24 20:49 | 29.11879 | -81.14034 | 12384 ft | 318 kts | 161° |
| 2026-04-24 20:49 | 29.09830 | -81.13135 | 12094 ft | 313 kts | 161° |
| 2026-04-24 20:49 | 29.07795 | -81.12257 | 11779 ft | 313 kts | 162° |
| 2026-04-24 20:49 | 29.05754 | -81.11385 | 11479 ft | 313 kts | 161° |
| 2026-04-24 20:50 | 29.03719 | -81.10531 | 11173 ft | 309 kts | 163° |
| 2026-04-24 20:50 | 29.01688 | -81.09752 | 10896 ft | 306 kts | 164° |
| 2026-04-24 20:50 | 28.99672 | -81.08985 | 10545 ft | 306 kts | 165° |
| 2026-04-24 20:50 | 28.97649 | -81.08253 | 10235 ft | 302 kts | 167° |
| 2026-04-24 20:51 | 28.95640 | -81.07834 | 9950 ft | 293 kts | 177° |
| 2026-04-24 20:51 | 28.93632 | -81.07629 | 9642 ft | 287 kts | 178° |
| 2026-04-24 20:51 | 28.91665 | -81.07436 | 9352 ft | 281 kts | 177° |
| 2026-04-24 20:51 | 28.89731 | -81.07231 | 9064 ft | 277 kts | 178° |
| 2026-04-24 20:52 | 28.87852 | -81.07497 | 8783 ft | 272 kts | 203° |
| 2026-04-24 20:52 | 28.86228 | -81.08535 | 8546 ft | 267 kts | 217° |
| 2026-04-24 20:52 | 28.84718 | -81.09756 | 8288 ft | 266 kts | 218° |
| 2026-04-24 20:52 | 28.83212 | -81.10989 | 8011 ft | 266 kts | 217° |
| 2026-04-24 20:53 | 28.81702 | -81.12209 | 7736 ft | 264 kts | 217° |
| 2026-04-24 20:53 | 28.80212 | -81.13400 | 7469 ft | 259 kts | 216° |
| 2026-04-24 20:53 | 28.78750 | -81.14564 | 7213 ft | 253 kts | 216° |
| 2026-04-24 20:53 | 28.77325 | -81.15695 | 7025 ft | 245 kts | 218° |
| 2026-04-24 20:54 | 28.76431 | -81.16438 | 6986 ft | 236 kts | 216° |
| 2026-04-24 20:54 | 28.75091 | -81.17436 | 6962 ft | 223 kts | 214° |
| 2026-04-24 20:54 | 28.73382 | -81.18678 | 6677 ft | 219 kts | 214° |
| 2026-04-24 20:54 | 28.72107 | -81.19604 | 6450 ft | 217 kts | 214° |
| 2026-04-24 20:55 | 28.71249 | -81.20232 | 6297 ft | 216 kts | 214° |
| 2026-04-24 20:55 | 28.69987 | -81.21164 | 6073 ft | 218 kts | 214° |
| 2026-04-24 20:55 | 28.68717 | -81.22098 | 5816 ft | 221 kts | 214° |
| 2026-04-24 20:55 | 28.67423 | -81.23046 | 5561 ft | 221 kts | 214° |
| 2026-04-24 20:56 | 28.66128 | -81.23992 | 5302 ft | 221 kts | 214° |
| 2026-04-24 20:56 | 28.64832 | -81.24939 | 5071 ft | 221 kts | 214° |
| 2026-04-24 20:56 | 28.63538 | -81.25895 | 4818 ft | 221 kts | 214° |
| 2026-04-24 20:56 | 28.62256 | -81.26849 | 4560 ft | 219 kts | 214° |
| 2026-04-24 20:57 | 28.60984 | -81.27800 | 4330 ft | 219 kts | 213° |
| 2026-04-24 20:57 | 28.59577 | -81.28386 | 4041 ft | 218 kts | 179° |
| 2026-04-24 20:57 | 28.58075 | -81.28289 | 3822 ft | 215 kts | 182° |
| 2026-04-24 20:57 | 28.56589 | -81.28377 | 3595 ft | 212 kts | 181° |
| 2026-04-24 20:58 | 28.55098 | -81.28439 | 3180 ft | 214 kts | 182° |
| 2026-04-24 20:58 | 28.53626 | -81.28462 | 2633 ft | 210 kts | 180° |
| 2026-04-24 20:58 | 28.52164 | -81.28453 | 2054 ft | 208 kts | 177° |
| 2026-04-24 20:58 | 28.50748 | -81.28342 | 1613 ft | 200 kts | 174° |
| 2026-04-24 20:59 | 28.49418 | -81.28264 | 1330 ft | 185 kts | 180° |
| 2026-04-24 20:59 | 28.48211 | -81.28315 | 1137 ft | 163 kts | 180° |
| 2026-04-24 20:59 | 28.47111 | -81.28274 | 809 ft | 154 kts | 178° |
| 2026-04-24 20:59 | 28.46082 | -81.28270 | 544 ft | 143 kts | 182° |
| 2026-04-24 21:00 | 28.45124 | -81.28264 | 300 ft | 133 kts | 180° |
| 2026-04-24 21:00 | 28.44258 | -81.28244 | 119 ft | 118 kts | 184° |
| 2026-04-24 21:00 | 28.43531 | -81.28246 | 100 ft | 82 kts | 179° |
| 2026-04-24 21:00 | 28.43181 | -81.28243 | 98 ft | 25 kts | 179° |
| 2026-04-24 21:01 | 28.43000 | -81.28240 | 100 ft | 26 kts | 179° |
| 2026-04-24 21:01 | 28.42828 | -81.28237 | 103 ft | 24 kts | 179° |
| 2026-04-24 21:01 | 28.42667 | -81.28240 | 104 ft | 23 kts | 186° |
| 2026-04-24 21:01 | 28.42540 | -81.28314 | 105 ft | 21 kts | 231° |
| 2026-04-24 21:02 | 28.42486 | -81.28467 | 103 ft | 21 kts | 252° |
| 2026-04-24 21:02 | 28.42437 | -81.28623 | 104 ft | 21 kts | 250° |
| 2026-04-24 21:02 | 28.42388 | -81.28772 | 107 ft | 20 kts | 250° |
| 2026-04-24 21:02 | 28.42343 | -81.28918 | 105 ft | 19 kts | 253° |
| 2026-04-24 21:03 | 28.42305 | -81.29063 | 107 ft | 19 kts | 253° |
| 2026-04-24 21:03 | 28.42289 | -81.29207 | 106 ft | 18 kts | 268° |
| 2026-04-24 21:03 | 28.42284 | -81.29352 | 103 ft | 18 kts | 268° |
| 2026-04-24 21:03 | 28.42280 | -81.29492 | 99 ft | 19 kts | 270° |
| 2026-04-24 21:04 | 28.42280 | -81.29640 | 98 ft | 17 kts | 270° |
| 2026-04-24 21:04 | 28.42310 | -81.29705 | 99 ft | 10 kts | 338° |
| 2026-04-24 21:04 | 28.42363 | -81.29750 | 100 ft | 10 kts | 310° |
| 2026-04-24 21:04 | 28.42413 | -81.29796 | 101 ft | 9 kts | 345° |
| 2026-04-24 21:05 | 28.42476 | -81.29799 | 102 ft | 9 kts | 358° |
| 2026-04-24 21:05 | 28.42538 | -81.29800 | 102 ft | 9 kts | 359° |
| 2026-04-24 21:05 | 28.42599 | -81.29801 | 102 ft | 9 kts | 0° |
| 2026-04-24 21:05 | 28.42657 | -81.29801 | 102 ft | 8 kts | 0° |
| 2026-04-24 21:06 | 28.42713 | -81.29801 | 102 ft | 8 kts | 360° |
| 2026-04-24 21:06 | 28.42770 | -81.29801 | 102 ft | 9 kts | 359° |
| 2026-04-24 21:06 | 28.42839 | -81.29802 | 102 ft | 11 kts | 0° |
| 2026-04-24 21:06 | 28.42904 | -81.29837 | 101 ft | 11 kts | 291° |
| 2026-04-24 21:07 | 28.42902 | -81.29923 | 102 ft | 9 kts | 266° |
| 2026-04-24 21:07 | 28.42882 | -81.29961 | 101 ft | 5 kts | 238° |